Terminal Aerodrome Forecast
Issued by NWS

Home | Current Version | Previous Version | Text Only | Print | Product List | Glossary On
Versions: 1 2 3 4 5 6 7 8 9 10 11 12 13 14 15
294
FTUS45 KTFX 072333
TAFHLN
TAF
KHLN 072333Z 0800/0824 26010KT P6SM SCT100 BKN150
     FM080900 VRB06KT P6SM SCT180
     FM082000 28010KT P6SM SCT060 SCT180=

USA.gov is the U.S. government's official web portal to all federal, state and local government web resources and services.